Terminal Aerodrome Forecast
Issued by NWS

Home | Current Version | Previous Version | Text Only | Print | Product List | Glossary On
Versions: 1 2 3 4 5 6 7 8 9 10 11 12 13
000
FTUS41 KPHI 041139
TAFPNE
TAF
KPNE 041139Z 0412/0512 23005KT P6SM FEW030 BKN120
     FM041500 24011G21KT P6SM BKN040 PROB30 0421/0422 5SM -TSRA
      OVC035CB
     FM042300 27009G16KT P6SM BKN050
     FM050100 30005KT P6SM SCT070=

USA.gov is the U.S. government's official web portal to all federal, state and local government web resources and services.